sensor_id;sensor_type;location;lat;lon;timestamp;temperature;humidity
38938;DHT22;24727;51.974;20.868;2022-09-28T00:01:23;10.70;99.90
38938;DHT22;24727;51.974;20.868;2022-09-28T00:03:54;10.60;99.90
38938;DHT22;24727;51.974;20.868;2022-09-28T00:06:27;10.60;99.90
38938;DHT22;24727;51.974;20.868;2022-09-28T00:11:56;10.60;99.90
38938;DHT22;24727;51.974;20.868;2022-09-28T00:14:41;10.50;99.90
38938;DHT22;24727;51.974;20.868;2022-09-28T00:17:09;10.50;99.90
38938;DHT22;24727;51.974;20.868;2022-09-28T00:19:37;10.50;99.90
38938;DHT22;24727;51.974;20.868;2022-09-28T00:22:06;10.50;99.90
38938;DHT22;24727;51.974;20.868;2022-09-28T00:24:33;10.40;99.90
38938;DHT22;24727;51.974;20.868;2022-09-28T00:27:00;10.40;99.90
38938;DHT22;24727;51.974;20.868;2022-09-28T00:29:28;10.40;99.90
38938;DHT22;24727;51.974;20.868;2022-09-28T00:31:56;10.40;99.90
38938;DHT22;24727;51.974;20.868;2022-09-28T00:34:28;10.40;99.90
38938;DHT22;24727;51.974;20.868;2022-09-28T00:36:59;10.40;99.90
38938;DHT22;24727;51.974;20.868;2022-09-28T00:39:26;10.40;99.90
38938;DHT22;24727;51.974;20.868;2022-09-28T00:41:52;10.40;99.90
38938;DHT22;24727;51.974;20.868;2022-09-28T00:49:53;10.40;99.90
38938;DHT22;24727;51.974;20.868;2022-09-28T00:52:33;10.40;99.90
38938;DHT22;24727;51.974;20.868;2022-09-28T00:55:03;10.40;99.90
38938;DHT22;24727;51.974;20.868;2022-09-28T00:57:31;10.30;99.90
38938;DHT22;24727;51.974;20.868;2022-09-28T00:59:58;10.30;99.90
38938;DHT22;24727;51.974;20.868;2022-09-28T01:02:28;10.30;99.90
38938;DHT22;24727;51.974;20.868;2022-09-28T01:04:56;10.30;99.90
38938;DHT22;24727;51.974;20.868;2022-09-28T01:07:22;10.30;99.90
38938;DHT22;24727;51.974;20.868;2022-09-28T01:09:48;10.40;99.90
38938;DHT22;24727;51.974;20.868;2022-09-28T01:12:15;10.50;99.90
38938;DHT22;24727;51.974;20.868;2022-09-28T01:14:41;10.60;99.90
38938;DHT22;24727;51.974;20.868;2022-09-28T01:17:16;10.70;99.90
38938;DHT22;24727;51.974;20.868;2022-09-28T01:23:01;10.80;99.90
38938;DHT22;24727;51.974;20.868;2022-09-28T01:28:42;10.90;99.90
38938;DHT22;24727;51.974;20.868;2022-09-28T01:31:16;10.90;99.00
38938;DHT22;24727;51.974;20.868;2022-09-28T01:33:54;10.80;98.00
38938;DHT22;24727;51.974;20.868;2022-09-28T01:36:43;10.80;97.00
38938;DHT22;24727;51.974;20.868;2022-09-28T01:39:47;10.80;97.20
38938;DHT22;24727;51.974;20.868;2022-09-28T01:42:24;10.80;97.20
38938;DHT22;24727;51.974;20.868;2022-09-28T01:44:54;10.90;95.50
38938;DHT22;24727;51.974;20.868;2022-09-28T01:47:23;10.90;91.80
38938;DHT22;24727;51.974;20.868;2022-09-28T01:50:04;11.00;88.90
38938;DHT22;24727;51.974;20.868;2022-09-28T01:55:33;11.10;80.90
38938;DHT22;24727;51.974;20.868;2022-09-28T01:58:27;11.20;78.40
38938;DHT22;24727;51.974;20.868;2022-09-28T02:01:04;11.30;76.40
38938;DHT22;24727;51.974;20.868;2022-09-28T02:03:55;11.30;74.30
38938;DHT22;24727;51.974;20.868;2022-09-28T02:06:33;11.30;74.20
38938;DHT22;24727;51.974;20.868;2022-09-28T02:09:22;11.30;74.80
38938;DHT22;24727;51.974;20.868;2022-09-28T02:12:04;11.30;74.50
38938;DHT22;24727;51.974;20.868;2022-09-28T02:14:33;11.30;73.10
38938;DHT22;24727;51.974;20.868;2022-09-28T02:17:00;11.30;71.90
38938;DHT22;24727;51.974;20.868;2022-09-28T02:19:27;11.30;71.30
38938;DHT22;24727;51.974;20.868;2022-09-28T02:22:22;11.30;70.90
38938;DHT22;24727;51.974;20.868;2022-09-28T02:24:57;11.40;70.70
38938;DHT22;24727;51.974;20.868;2022-09-28T02:27:44;11.30;70.60
38938;DHT22;24727;51.974;20.868;2022-09-28T02:30:12;11.40;69.50
38938;DHT22;24727;51.974;20.868;2022-09-28T02:32:41;11.40;67.50
38938;DHT22;24727;51.974;20.868;2022-09-28T02:35:14;11.40;67.30
38938;DHT22;24727;51.974;20.868;2022-09-28T02:37:41;11.50;66.70
38938;DHT22;24727;51.974;20.868;2022-09-28T02:40:23;11.40;67.20
38938;DHT22;24727;51.974;20.868;2022-09-28T02:56:35;11.20;79.90
38938;DHT22;24727;51.974;20.868;2022-09-28T02:59:41;11.20;80.70
38938;DHT22;24727;51.974;20.868;2022-09-28T03:08:06;11.00;89.90
38938;DHT22;24727;51.974;20.868;2022-09-28T03:10:57;10.90;92.70
38938;DHT22;24727;51.974;20.868;2022-09-28T03:13:27;10.80;94.20
38938;DHT22;24727;51.974;20.868;2022-09-28T03:16:14;10.70;95.30
38938;DHT22;24727;51.974;20.868;2022-09-28T03:18:41;10.70;96.30
38938;DHT22;24727;51.974;20.868;2022-09-28T03:21:10;10.60;96.90
38938;DHT22;24727;51.974;20.868;2022-09-28T03:23:39;10.60;96.70
38938;DHT22;24727;51.974;20.868;2022-09-28T03:26:14;10.60;98.20
38938;DHT22;24727;51.974;20.868;2022-09-28T03:28:42;10.50;98.90
38938;DHT22;24727;51.974;20.868;2022-09-28T03:31:10;10.40;99.10
38938;DHT22;24727;51.974;20.868;2022-09-28T03:33:37;10.30;99.00
38938;DHT22;24727;51.974;20.868;2022-09-28T03:36:03;10.30;99.90
38938;DHT22;24727;51.974;20.868;2022-09-28T03:38:29;10.30;99.90
38938;DHT22;24727;51.974;20.868;2022-09-28T03:40:58;10.20;99.90
38938;DHT22;24727;51.974;20.868;2022-09-28T03:43:25;10.20;99.90
38938;DHT22;24727;51.974;20.868;2022-09-28T03:45:53;10.10;99.90
38938;DHT22;24727;51.974;20.868;2022-09-28T03:48:32;10.00;99.90
38938;DHT22;24727;51.974;20.868;2022-09-28T03:51:03;10.00;99.90
38938;DHT22;24727;51.974;20.868;2022-09-28T03:53:31;9.90;99.90
38938;DHT22;24727;51.974;20.868;2022-09-28T03:56:10;9.90;99.90
38938;DHT22;24727;51.974;20.868;2022-09-28T03:58:37;9.90;99.90
38938;DHT22;24727;51.974;20.868;2022-09-28T04:01:09;9.80;99.90
38938;DHT22;24727;51.974;20.868;2022-09-28T04:03:38;9.80;99.90
38938;DHT22;24727;51.974;20.868;2022-09-28T04:06:13;9.80;99.90
38938;DHT22;24727;51.974;20.868;2022-09-28T04:08:39;9.80;99.90
38938;DHT22;24727;51.974;20.868;2022-09-28T04:11:05;9.70;99.90
38938;DHT22;24727;51.974;20.868;2022-09-28T04:13:31;9.70;99.90
38938;DHT22;24727;51.974;20.868;2022-09-28T04:15:59;9.70;99.90
38938;DHT22;24727;51.974;20.868;2022-09-28T04:18:26;9.60;99.90
38938;DHT22;24727;51.974;20.868;2022-09-28T04:21:05;9.60;99.90
38938;DHT22;24727;51.974;20.868;2022-09-28T04:23:34;9.60;99.90
38938;DHT22;24727;51.974;20.868;2022-09-28T04:26:02;9.60;99.90
38938;DHT22;24727;51.974;20.868;2022-09-28T04:28:29;9.60;99.90
38938;DHT22;24727;51.974;20.868;2022-09-28T04:31:18;9.70;99.90
38938;DHT22;24727;51.974;20.868;2022-09-28T04:33:44;9.70;99.90
38938;DHT22;24727;51.974;20.868;2022-09-28T04:36:10;9.70;99.90
38938;DHT22;24727;51.974;20.868;2022-09-28T04:38:38;9.70;99.90
38938;DHT22;24727;51.974;20.868;2022-09-28T04:41:07;9.70;99.90
38938;DHT22;24727;51.974;20.868;2022-09-28T04:43:33;9.70;99.90
38938;DHT22;24727;51.974;20.868;2022-09-28T04:46:01;9.70;99.90
38938;DHT22;24727;51.974;20.868;2022-09-28T04:48:28;9.60;99.90
38938;DHT22;24727;51.974;20.868;2022-09-28T04:50:56;9.60;99.90
38938;DHT22;24727;51.974;20.868;2022-09-28T04:53:23;9.60;99.90
38938;DHT22;24727;51.974;20.868;2022-09-28T04:56:04;9.60;99.90
38938;DHT22;24727;51.974;20.868;2022-09-28T04:58:31;9.60;99.90
38938;DHT22;24727;51.974;20.868;2022-09-28T05:01:00;9.50;99.90
38938;DHT22;24727;51.974;20.868;2022-09-28T05:03:27;9.50;99.90
38938;DHT22;24727;51.974;20.868;2022-09-28T05:05:53;9.50;99.90
38938;DHT22;24727;51.974;20.868;2022-09-28T05:08:19;9.50;99.90
38938;DHT22;24727;51.974;20.868;2022-09-28T05:10:47;9.50;99.90
38938;DHT22;24727;51.974;20.868;2022-09-28T05:13:14;9.40;99.90
38938;DHT22;24727;51.974;20.868;2022-09-28T05:15:41;9.40;99.90
38938;DHT22;24727;51.974;20.868;2022-09-28T05:18:08;9.40;99.90
38938;DHT22;24727;51.974;20.868;2022-09-28T05:20:39;9.40;99.90
38938;DHT22;24727;51.974;20.868;2022-09-28T05:23:07;9.30;99.90
38938;DHT22;24727;51.974;20.868;2022-09-28T05:25:33;9.30;99.90
38938;DHT22;24727;51.974;20.868;2022-09-28T05:27:59;9.30;99.90
38938;DHT22;24727;51.974;20.868;2022-09-28T05:30:28;9.30;99.90
38938;DHT22;24727;51.974;20.868;2022-09-28T05:32:53;9.20;99.90
38938;DHT22;24727;51.974;20.868;2022-09-28T05:35:21;9.20;99.90
38938;DHT22;24727;51.974;20.868;2022-09-28T05:37:48;9.10;99.90
38938;DHT22;24727;51.974;20.868;2022-09-28T05:40:15;9.00;99.90
38938;DHT22;24727;51.974;20.868;2022-09-28T05:42:41;9.00;99.90
38938;DHT22;24727;51.974;20.868;2022-09-28T05:45:08;9.00;99.90
38938;DHT22;24727;51.974;20.868;2022-09-28T05:47:39;9.10;99.90
38938;DHT22;24727;51.974;20.868;2022-09-28T05:50:07;9.10;99.90
38938;DHT22;24727;51.974;20.868;2022-09-28T05:52:34;9.20;99.90
38938;DHT22;24727;51.974;20.868;2022-09-28T05:55:00;9.20;99.90
38938;DHT22;24727;51.974;20.868;2022-09-28T05:57:27;9.20;99.90
38938;DHT22;24727;51.974;20.868;2022-09-28T05:59:52;9.20;99.90
38938;DHT22;24727;51.974;20.868;2022-09-28T06:02:18;9.20;99.90
38938;DHT22;24727;51.974;20.868;2022-09-28T06:04:44;9.40;99.90
38938;DHT22;24727;51.974;20.868;2022-09-28T06:07:12;9.50;99.90
38938;DHT22;24727;51.974;20.868;2022-09-28T06:09:38;9.60;99.90
38938;DHT22;24727;51.974;20.868;2022-09-28T06:12:05;9.80;99.90
38938;DHT22;24727;51.974;20.868;2022-09-28T06:14:31;9.80;99.90
38938;DHT22;24727;51.974;20.868;2022-09-28T06:16:59;9.80;99.90
38938;DHT22;24727;51.974;20.868;2022-09-28T06:19:30;9.70;98.80
38938;DHT22;24727;51.974;20.868;2022-09-28T06:22:03;9.70;99.20
38938;DHT22;24727;51.974;20.868;2022-09-28T06:24:31;9.90;99.90
38938;DHT22;24727;51.974;20.868;2022-09-28T06:26:59;10.10;98.60
38938;DHT22;24727;51.974;20.868;2022-09-28T06:29:24;10.20;97.40
38938;DHT22;24727;51.974;20.868;2022-09-28T06:31:51;10.20;96.70
38938;DHT22;24727;51.974;20.868;2022-09-28T06:34:17;10.30;96.20
38938;DHT22;24727;51.974;20.868;2022-09-28T06:36:43;10.40;95.40
38938;DHT22;24727;51.974;20.868;2022-09-28T06:39:09;10.40;95.70
38938;DHT22;24727;51.974;20.868;2022-09-28T06:41:35;10.30;95.60
38938;DHT22;24727;51.974;20.868;2022-09-28T06:44:01;10.20;94.70
38938;DHT22;24727;51.974;20.868;2022-09-28T06:46:29;10.20;95.00
38938;DHT22;24727;51.974;20.868;2022-09-28T06:48:55;10.00;94.10
38938;DHT22;24727;51.974;20.868;2022-09-28T06:51:24;9.90;94.30
38938;DHT22;24727;51.974;20.868;2022-09-28T06:53:52;10.00;95.20
38938;DHT22;24727;51.974;20.868;2022-09-28T06:56:20;10.00;95.00
38938;DHT22;24727;51.974;20.868;2022-09-28T06:58:47;10.10;94.70
38938;DHT22;24727;51.974;20.868;2022-09-28T07:01:12;10.40;96.40
38938;DHT22;24727;51.974;20.868;2022-09-28T07:03:38;10.70;95.40
38938;DHT22;24727;51.974;20.868;2022-09-28T07:06:10;11.00;93.80
38938;DHT22;24727;51.974;20.868;2022-09-28T07:08:38;11.10;89.40
38938;DHT22;24727;51.974;20.868;2022-09-28T07:11:05;10.90;87.40
38938;DHT22;24727;51.974;20.868;2022-09-28T07:13:31;10.90;86.80
38938;DHT22;24727;51.974;20.868;2022-09-28T07:15:58;11.00;87.50
38938;DHT22;24727;51.974;20.868;2022-09-28T07:18:25;11.00;88.10
38938;DHT22;24727;51.974;20.868;2022-09-28T07:20:54;10.90;86.60
38938;DHT22;24727;51.974;20.868;2022-09-28T07:23:22;11.10;87.90
38938;DHT22;24727;51.974;20.868;2022-09-28T07:25:48;11.10;86.70
38938;DHT22;24727;51.974;20.868;2022-09-28T07:28:15;11.20;86.80
38938;DHT22;24727;51.974;20.868;2022-09-28T07:30:43;11.50;86.30
38938;DHT22;24727;51.974;20.868;2022-09-28T07:33:12;11.70;85.50
38938;DHT22;24727;51.974;20.868;2022-09-28T07:35:39;11.60;81.90
38938;DHT22;24727;51.974;20.868;2022-09-28T07:38:07;11.50;81.40
38938;DHT22;24727;51.974;20.868;2022-09-28T07:40:37;11.40;82.30
38938;DHT22;24727;51.974;20.868;2022-09-28T07:43:21;11.30;83.20
38938;DHT22;24727;51.974;20.868;2022-09-28T07:45:52;11.20;83.70
38938;DHT22;24727;51.974;20.868;2022-09-28T07:48:21;11.00;84.00
38938;DHT22;24727;51.974;20.868;2022-09-28T07:50:49;10.70;83.60
38938;DHT22;24727;51.974;20.868;2022-09-28T07:53:17;10.80;86.70
38938;DHT22;24727;51.974;20.868;2022-09-28T07:55:58;10.70;87.50
38938;DHT22;24727;51.974;20.868;2022-09-28T07:58:33;11.00;89.10
38938;DHT22;24727;51.974;20.868;2022-09-28T08:01:06;10.90;86.20
38938;DHT22;24727;51.974;20.868;2022-09-28T08:03:33;10.90;84.60
38938;DHT22;24727;51.974;20.868;2022-09-28T08:06:07;10.80;82.70
38938;DHT22;24727;51.974;20.868;2022-09-28T08:08:36;10.80;83.80
38938;DHT22;24727;51.974;20.868;2022-09-28T08:11:05;10.80;82.50
38938;DHT22;24727;51.974;20.868;2022-09-28T08:13:33;10.90;83.70
38938;DHT22;24727;51.974;20.868;2022-09-28T08:16:01;11.10;85.80
38938;DHT22;24727;51.974;20.868;2022-09-28T08:18:27;11.20;84.20
38938;DHT22;24727;51.974;20.868;2022-09-28T08:20:53;11.30;80.80
38938;DHT22;24727;51.974;20.868;2022-09-28T08:23:38;11.30;80.30
38938;DHT22;24727;51.974;20.868;2022-09-28T08:26:05;11.50;83.20
38938;DHT22;24727;51.974;20.868;2022-09-28T08:28:32;11.20;73.00
38938;DHT22;24727;51.974;20.868;2022-09-28T08:31:00;11.10;71.00
38938;DHT22;24727;51.974;20.868;2022-09-28T08:33:26;11.00;74.80
38938;DHT22;24727;51.974;20.868;2022-09-28T08:35:58;11.00;80.60
38938;DHT22;24727;51.974;20.868;2022-09-28T08:38:27;11.00;80.00
38938;DHT22;24727;51.974;20.868;2022-09-28T08:41:15;11.00;78.50
38938;DHT22;24727;51.974;20.868;2022-09-28T08:43:51;11.00;75.90
38938;DHT22;24727;51.974;20.868;2022-09-28T08:46:24;10.90;74.90
38938;DHT22;24727;51.974;20.868;2022-09-28T08:49:02;11.00;76.90
38938;DHT22;24727;51.974;20.868;2022-09-28T08:51:44;11.00;69.90
38938;DHT22;24727;51.974;20.868;2022-09-28T08:54:20;11.00;72.20
38938;DHT22;24727;51.974;20.868;2022-09-28T08:56:53;11.10;68.70
38938;DHT22;24727;51.974;20.868;2022-09-28T08:59:23;11.30;73.40
38938;DHT22;24727;51.974;20.868;2022-09-28T09:01:55;11.30;72.50
38938;DHT22;24727;51.974;20.868;2022-09-28T09:04:23;11.30;70.50
38938;DHT22;24727;51.974;20.868;2022-09-28T09:14:46;11.50;66.90
38938;DHT22;24727;51.974;20.868;2022-09-28T09:17:38;11.50;62.10
38938;DHT22;24727;51.974;20.868;2022-09-28T09:20:22;11.80;68.20
38938;DHT22;24727;51.974;20.868;2022-09-28T09:23:03;11.90;61.70
38938;DHT22;24727;51.974;20.868;2022-09-28T09:25:41;12.10;61.30
38938;DHT22;24727;51.974;20.868;2022-09-28T09:34:30;12.00;59.00
38938;DHT22;24727;51.974;20.868;2022-09-28T09:39:44;12.10;36.40
38938;DHT22;24727;51.974;20.868;2022-09-28T09:47:22;11.70;1.00
38938;DHT22;24727;51.974;20.868;2022-09-28T09:52:48;11.50;1.00
38938;DHT22;24727;51.974;20.868;2022-09-28T09:55:43;11.50;1.00
38938;DHT22;24727;51.974;20.868;2022-09-28T09:58:16;11.50;1.00
38938;DHT22;24727;51.974;20.868;2022-09-28T10:00:44;11.60;1.00
38938;DHT22;24727;51.974;20.868;2022-09-28T10:03:31;11.80;1.00
38938;DHT22;24727;51.974;20.868;2022-09-28T10:06:11;12.20;1.00
38938;DHT22;24727;51.974;20.868;2022-09-28T10:11:34;12.70;1.00
38938;DHT22;24727;51.974;20.868;2022-09-28T10:14:03;12.70;1.00
38938;DHT22;24727;51.974;20.868;2022-09-28T10:16:30;12.70;1.00
38938;DHT22;24727;51.974;20.868;2022-09-28T10:18:58;12.70;1.00
38938;DHT22;24727;51.974;20.868;2022-09-28T10:21:24;12.60;1.00
38938;DHT22;24727;51.974;20.868;2022-09-28T10:23:56;12.60;1.00
38938;DHT22;24727;51.974;20.868;2022-09-28T10:26:38;12.60;1.00
38938;DHT22;24727;51.974;20.868;2022-09-28T10:29:20;12.90;1.00
38938;DHT22;24727;51.974;20.868;2022-09-28T10:31:48;13.00;1.00
38938;DHT22;24727;51.974;20.868;2022-09-28T10:34:16;13.00;1.00
38938;DHT22;24727;51.974;20.868;2022-09-28T10:36:52;12.80;1.00
38938;DHT22;24727;51.974;20.868;2022-09-28T10:39:51;12.90;1.00
38938;DHT22;24727;51.974;20.868;2022-09-28T10:42:31;13.20;1.00
38938;DHT22;24727;51.974;20.868;2022-09-28T10:44:59;13.20;1.00
38938;DHT22;24727;51.974;20.868;2022-09-28T10:47:28;13.20;1.00
38938;DHT22;24727;51.974;20.868;2022-09-28T10:49:58;13.40;1.00
38938;DHT22;24727;51.974;20.868;2022-09-28T10:52:41;13.70;1.00
38938;DHT22;24727;51.974;20.868;2022-09-28T10:57:45;13.20;1.00
38938;DHT22;24727;51.974;20.868;2022-09-28T11:00:36;13.00;1.00
38938;DHT22;24727;51.974;20.868;2022-09-28T11:03:04;12.80;1.00
38938;DHT22;24727;51.974;20.868;2022-09-28T11:05:30;13.00;1.00
38938;DHT22;24727;51.974;20.868;2022-09-28T11:07:58;13.10;1.00
38938;DHT22;24727;51.974;20.868;2022-09-28T11:10:30;13.00;1.00
38938;DHT22;24727;51.974;20.868;2022-09-28T11:12:57;13.20;1.00
38938;DHT22;24727;51.974;20.868;2022-09-28T11:15:30;13.20;1.00
38938;DHT22;24727;51.974;20.868;2022-09-28T11:18:27;13.30;1.00
38938;DHT22;24727;51.974;20.868;2022-09-28T11:21:27;13.20;1.00
38938;DHT22;24727;51.974;20.868;2022-09-28T11:24:04;13.10;1.00
38938;DHT22;24727;51.974;20.868;2022-09-28T11:26:37;13.10;1.00
38938;DHT22;24727;51.974;20.868;2022-09-28T11:29:04;13.20;1.00
38938;DHT22;24727;51.974;20.868;2022-09-28T11:31:32;13.40;1.00
38938;DHT22;24727;51.974;20.868;2022-09-28T11:34:14;13.50;1.00
38938;DHT22;24727;51.974;20.868;2022-09-28T11:36:56;13.50;1.00
38938;DHT22;24727;51.974;20.868;2022-09-28T11:40:13;13.70;1.00
38938;DHT22;24727;51.974;20.868;2022-09-28T11:48:04;13.50;1.00
38938;DHT22;24727;51.974;20.868;2022-09-28T11:51:06;13.30;1.00
38938;DHT22;24727;51.974;20.868;2022-09-28T11:53:46;13.10;1.00
38938;DHT22;24727;51.974;20.868;2022-09-28T11:56:26;13.10;1.00
38938;DHT22;24727;51.974;20.868;2022-09-28T12:01:51;13.30;1.00
38938;DHT22;24727;51.974;20.868;2022-09-28T12:07:00;13.70;1.00
38938;DHT22;24727;51.974;20.868;2022-09-28T12:09:40;13.80;1.00
38938;DHT22;24727;51.974;20.868;2022-09-28T12:12:21;13.70;1.00
38938;DHT22;24727;51.974;20.868;2022-09-28T12:14:52;14.10;1.00
38938;DHT22;24727;51.974;20.868;2022-09-28T12:17:28;14.10;1.00
38938;DHT22;24727;51.974;20.868;2022-09-28T12:20:28;14.20;1.00
38938;DHT22;24727;51.974;20.868;2022-09-28T12:23:11;14.20;1.00
38938;DHT22;24727;51.974;20.868;2022-09-28T12:25:43;14.00;1.00
38938;DHT22;24727;51.974;20.868;2022-09-28T12:28:32;14.00;1.00
38938;DHT22;24727;51.974;20.868;2022-09-28T12:31:13;13.60;1.00
38938;DHT22;24727;51.974;20.868;2022-09-28T12:33:47;13.10;1.00
38938;DHT22;24727;51.974;20.868;2022-09-28T12:36:37;13.00;1.00
38938;DHT22;24727;51.974;20.868;2022-09-28T12:39:36;13.00;1.00
38938;DHT22;24727;51.974;20.868;2022-09-28T12:52:12;13.80;1.00
38938;DHT22;24727;51.974;20.868;2022-09-28T12:54:56;13.70;1.00
38938;DHT22;24727;51.974;20.868;2022-09-28T12:57:39;13.50;1.00
38938;DHT22;24727;51.974;20.868;2022-09-28T13:00:19;13.60;1.00
38938;DHT22;24727;51.974;20.868;2022-09-28T13:09:17;13.60;1.00
38938;DHT22;24727;51.974;20.868;2022-09-28T13:14:44;13.50;1.00
38938;DHT22;24727;51.974;20.868;2022-09-28T13:18:21;13.60;1.00
38938;DHT22;24727;51.974;20.868;2022-09-28T13:25:54;13.70;1.00
38938;DHT22;24727;51.974;20.868;2022-09-28T13:28:23;13.90;1.00
38938;DHT22;24727;51.974;20.868;2022-09-28T13:30:57;14.20;1.00
38938;DHT22;24727;51.974;20.868;2022-09-28T13:33:41;14.30;1.00
38938;DHT22;24727;51.974;20.868;2022-09-28T13:38:54;14.70;1.00
38938;DHT22;24727;51.974;20.868;2022-09-28T13:44:17;14.90;1.00
38938;DHT22;24727;51.974;20.868;2022-09-28T13:50:25;14.10;1.00
38938;DHT22;24727;51.974;20.868;2022-09-28T13:52:39;14.20;1.00
38938;DHT22;24727;51.974;20.868;2022-09-28T13:55:20;14.00;1.00
38938;DHT22;24727;51.974;20.868;2022-09-28T14:00:45;13.80;1.00
38938;DHT22;24727;51.974;20.868;2022-09-28T14:06:25;13.70;1.00
38938;DHT22;24727;51.974;20.868;2022-09-28T14:16:36;13.70;1.00
38938;DHT22;24727;51.974;20.868;2022-09-28T14:27:25;13.50;1.00
38938;DHT22;24727;51.974;20.868;2022-09-28T14:30:17;13.60;1.00
38938;DHT22;24727;51.974;20.868;2022-09-28T14:32:52;13.70;1.00
38938;DHT22;24727;51.974;20.868;2022-09-28T14:38:16;13.70;1.00
38938;DHT22;24727;51.974;20.868;2022-09-28T14:48:46;13.90;1.00
38938;DHT22;24727;51.974;20.868;2022-09-28T14:59:26;14.00;1.00
38938;DHT22;24727;51.974;20.868;2022-09-28T15:02:04;14.00;1.00
38938;DHT22;24727;51.974;20.868;2022-09-28T15:04:33;13.80;1.00
38938;DHT22;24727;51.974;20.868;2022-09-28T15:07:04;14.00;1.00
38938;DHT22;24727;51.974;20.868;2022-09-28T15:09:33;14.10;1.00
38938;DHT22;24727;51.974;20.868;2022-09-28T15:15:00;14.20;1.00
38938;DHT22;24727;51.974;20.868;2022-09-28T15:17:36;14.30;1.00
38938;DHT22;24727;51.974;20.868;2022-09-28T15:20:22;14.30;1.00
38938;DHT22;24727;51.974;20.868;2022-09-28T15:22:52;14.40;1.00
38938;DHT22;24727;51.974;20.868;2022-09-28T15:25:23;14.40;1.00
38938;DHT22;24727;51.974;20.868;2022-09-28T15:27:55;14.40;1.00
38938;DHT22;24727;51.974;20.868;2022-09-28T15:30:24;14.40;1.00
38938;DHT22;24727;51.974;20.868;2022-09-28T15:32:51;14.30;1.00
38938;DHT22;24727;51.974;20.868;2022-09-28T15:35:26;14.30;1.00
38938;DHT22;24727;51.974;20.868;2022-09-28T15:37:53;14.40;1.00
38938;DHT22;24727;51.974;20.868;2022-09-28T15:40:30;14.40;1.00
38938;DHT22;24727;51.974;20.868;2022-09-28T15:42:58;14.40;1.00
38938;DHT22;24727;51.974;20.868;2022-09-28T15:45:30;14.40;1.00
38938;DHT22;24727;51.974;20.868;2022-09-28T15:48:18;14.30;1.00
38938;DHT22;24727;51.974;20.868;2022-09-28T15:51:03;14.20;1.00
38938;DHT22;24727;51.974;20.868;2022-09-28T15:56:28;14.10;1.00
38938;DHT22;24727;51.974;20.868;2022-09-28T16:01:42;14.00;1.00
38938;DHT22;24727;51.974;20.868;2022-09-28T16:04:44;14.00;1.00
38938;DHT22;24727;51.974;20.868;2022-09-28T16:07:29;14.00;1.00
38938;DHT22;24727;51.974;20.868;2022-09-28T16:12:52;13.90;1.00
38938;DHT22;24727;51.974;20.868;2022-09-28T16:17:57;13.80;1.00
38938;DHT22;24727;51.974;20.868;2022-09-28T16:31:03;13.60;1.00
38938;DHT22;24727;51.974;20.868;2022-09-28T16:33:52;13.60;1.00
38938;DHT22;24727;51.974;20.868;2022-09-28T16:36:20;13.60;1.00
38938;DHT22;24727;51.974;20.868;2022-09-28T16:38:49;13.50;1.00
38938;DHT22;24727;51.974;20.868;2022-09-28T16:41:22;13.50;1.00
38938;DHT22;24727;51.974;20.868;2022-09-28T16:43:55;13.50;1.00
38938;DHT22;24727;51.974;20.868;2022-09-28T16:46:27;13.40;1.00
38938;DHT22;24727;51.974;20.868;2022-09-28T16:48:54;13.40;1.00
38938;DHT22;24727;51.974;20.868;2022-09-28T16:51:22;13.30;1.00
38938;DHT22;24727;51.974;20.868;2022-09-28T16:53:48;13.20;1.00
38938;DHT22;24727;51.974;20.868;2022-09-28T16:56:33;13.20;1.00
38938;DHT22;24727;51.974;20.868;2022-09-28T16:59:00;13.10;1.00
38938;DHT22;24727;51.974;20.868;2022-09-28T17:01:28;13.00;1.00
38938;DHT22;24727;51.974;20.868;2022-09-28T17:03:57;13.00;1.00
38938;DHT22;24727;51.974;20.868;2022-09-28T17:06:23;12.90;1.00
38938;DHT22;24727;51.974;20.868;2022-09-28T17:08:52;12.90;1.00
38938;DHT22;24727;51.974;20.868;2022-09-28T17:11:24;13.00;1.00
38938;DHT22;24727;51.974;20.868;2022-09-28T17:13:50;13.00;1.00
38938;DHT22;24727;51.974;20.868;2022-09-28T17:16:27;13.00;1.00
38938;DHT22;24727;51.974;20.868;2022-09-28T17:18:53;12.90;1.00
38938;DHT22;24727;51.974;20.868;2022-09-28T17:21:19;12.90;1.00
38938;DHT22;24727;51.974;20.868;2022-09-28T17:23:47;13.00;1.00
38938;DHT22;24727;51.974;20.868;2022-09-28T17:26:23;12.90;1.00
38938;DHT22;24727;51.974;20.868;2022-09-28T17:28:56;12.90;1.00
38938;DHT22;24727;51.974;20.868;2022-09-28T17:31:27;12.80;1.00
38938;DHT22;24727;51.974;20.868;2022-09-28T17:33:54;12.80;1.00
38938;DHT22;24727;51.974;20.868;2022-09-28T17:36:20;12.80;1.00
38938;DHT22;24727;51.974;20.868;2022-09-28T17:38:47;12.70;1.00
38938;DHT22;24727;51.974;20.868;2022-09-28T17:41:17;12.70;1.00
38938;DHT22;24727;51.974;20.868;2022-09-28T17:43:44;12.60;1.00
38938;DHT22;24727;51.974;20.868;2022-09-28T17:46:32;12.50;1.00
38938;DHT22;24727;51.974;20.868;2022-09-28T17:48:59;12.50;1.00
38938;DHT22;24727;51.974;20.868;2022-09-28T17:51:30;12.40;1.00
38938;DHT22;24727;51.974;20.868;2022-09-28T17:53:57;12.30;1.00
38938;DHT22;24727;51.974;20.868;2022-09-28T17:56:27;12.20;1.00
38938;DHT22;24727;51.974;20.868;2022-09-28T17:58:53;12.00;1.00
38938;DHT22;24727;51.974;20.868;2022-09-28T18:01:24;11.80;1.00
38938;DHT22;24727;51.974;20.868;2022-09-28T18:03:50;11.90;1.00
38938;DHT22;24727;51.974;20.868;2022-09-28T18:06:17;11.80;1.00
38938;DHT22;24727;51.974;20.868;2022-09-28T18:08:49;11.70;1.00
38938;DHT22;24727;51.974;20.868;2022-09-28T18:11:15;11.70;1.00
38938;DHT22;24727;51.974;20.868;2022-09-28T18:13:48;11.50;1.00
38938;DHT22;24727;51.974;20.868;2022-09-28T18:16:14;11.10;1.00
38938;DHT22;24727;51.974;20.868;2022-09-28T18:18:40;10.70;1.00
38938;DHT22;24727;51.974;20.868;2022-09-28T18:21:07;10.50;39.40
38938;DHT22;24727;51.974;20.868;2022-09-28T18:23:37;10.20;74.70
38938;DHT22;24727;51.974;20.868;2022-09-28T18:26:12;10.00;90.70
38938;DHT22;24727;51.974;20.868;2022-09-28T18:28:39;9.90;93.30
38938;DHT22;24727;51.974;20.868;2022-09-28T18:31:09;9.90;95.90
38938;DHT22;24727;51.974;20.868;2022-09-28T18:33:36;9.80;96.60
38938;DHT22;24727;51.974;20.868;2022-09-28T18:36:04;9.80;97.00
38938;DHT22;24727;51.974;20.868;2022-09-28T18:38:30;9.70;98.30
38938;DHT22;24727;51.974;20.868;2022-09-28T18:40:57;9.70;98.60
38938;DHT22;24727;51.974;20.868;2022-09-28T18:43:30;9.70;99.10
38938;DHT22;24727;51.974;20.868;2022-09-28T18:45:57;9.60;98.50
38938;DHT22;24727;51.974;20.868;2022-09-28T18:48:24;9.60;99.50
38938;DHT22;24727;51.974;20.868;2022-09-28T18:50:52;9.60;99.10
38938;DHT22;24727;51.974;20.868;2022-09-28T18:53:19;9.60;99.90
38938;DHT22;24727;51.974;20.868;2022-09-28T18:55:45;9.60;99.50